TimeCST,TemperatureF,Dew PointF,Humidity,Sea Level PressureIn,VisibilityMPH,Wind Direction,Wind SpeedMPH,Gust SpeedMPH,PrecipitationIn,Events,Conditions,WindDirDegrees,DateUTC
12:53 AM,25.0,21.9,88,30.40,10.0,Calm,Calm,-,N/A,,Clear,0,2013-01-05 06:53:00
1:53 AM,25.0,19.9,81,30.41,9.0,Calm,Calm,-,N/A,,Clear,0,2013-01-05 07:53:00
2:53 AM,24.1,19.9,84,30.42,9.0,Calm,Calm,-,N/A,,Clear,0,2013-01-05 08:53:00
4:53 AM,21.9,18.0,85,30.42,10.0,Calm,Calm,-,N/A,,Clear,0,2013-01-05 10:53:00
5:53 AM,21.9,19.0,89,30.42,9.0,Calm,Calm,-,N/A,,Clear,0,2013-01-05 11:53:00
6:53 AM,23.0,19.9,88,30.43,9.0,Calm,Calm,-,N/A,,Clear,0,2013-01-05 12:53:00
7:53 AM,24.1,21.0,88,30.43,9.0,Calm,Calm,-,N/A,,Partly Cloudy,0,2013-01-05 13:53:00
8:53 AM,28.9,25.0,85,30.41,10.0,Calm,Calm,-,N/A,,Clear,0,2013-01-05 14:53:00
9:53 AM,37.0,28.0,70,30.41,10.0,South,4.6,-,N/A,,Clear,190,2013-01-05 15:53:00
10:53 AM,43.0,27.0,53,30.38,10.0,SSW,4.6,-,N/A,,Clear,200,2013-01-05 16:53:00
11:53 AM,46.0,26.1,46,30.33,10.0,SSW,8.1,-,N/A,,Clear,210,2013-01-05 17:53:00
12:53 PM,46.0,26.1,46,30.30,10.0,WSW,9.2,-,N/A,,Clear,240,2013-01-05 18:53:00
1:53 PM,46.0,27.0,47,30.28,10.0,SSW,8.1,-,N/A,,Mostly Cloudy,210,2013-01-05 19:53:00
2:53 PM,46.0,27.0,47,30.28,10.0,WSW,5.8,-,N/A,,Overcast,240,2013-01-05 20:53:00
3:53 PM,46.0,26.1,46,30.27,10.0,SW,6.9,-,N/A,,Overcast,230,2013-01-05 21:53:00
4:53 PM,45.0,26.1,48,30.27,10.0,SW,5.8,-,N/A,,Overcast,220,2013-01-05 22:53:00
5:53 PM,44.1,27.0,51,30.28,10.0,South,5.8,-,N/A,,Overcast,190,2013-01-05 23:53:00
6:53 PM,43.0,27.0,53,30.28,10.0,South,5.8,-,N/A,,Overcast,190,2013-01-06 00:53:00
7:53 PM,43.0,28.0,56,30.28,10.0,SSW,5.8,-,N/A,,Overcast,210,2013-01-06 01:53:00
8:53 PM,42.1,28.0,58,30.26,10.0,SSW,5.8,-,N/A,,Overcast,200,2013-01-06 02:53:00
9:53 PM,43.0,28.0,56,30.25,10.0,SSW,6.9,-,N/A,,Overcast,200,2013-01-06 03:53:00
10:53 PM,42.1,28.0,58,30.24,10.0,WSW,3.5,-,N/A,,Overcast,250,2013-01-06 04:53:00
11:53 PM,42.1,28.0,58,30.23,10.0,SW,3.5,-,N/A,,Overcast,220,2013-01-06 05:53:00